sensor_id;sensor_type;location;lat;lon;timestamp;P1;durP1;ratioP1;P2;durP2;ratioP2
3337;SDS011;1682;49.286;10.788;2022-08-19T00:00:46;14.27;;;12.70;;
3337;SDS011;1682;49.286;10.788;2022-08-19T00:03:35;15.53;;;14.03;;
3337;SDS011;1682;49.286;10.788;2022-08-19T00:06:23;16.53;;;13.93;;
3337;SDS011;1682;49.286;10.788;2022-08-19T00:09:11;16.20;;;14.13;;
3337;SDS011;1682;49.286;10.788;2022-08-19T00:12:00;22.47;;;16.33;;
3337;SDS011;1682;49.286;10.788;2022-08-19T00:14:48;18.07;;;14.80;;
3337;SDS011;1682;49.286;10.788;2022-08-19T00:17:36;18.47;;;14.07;;
3337;SDS011;1682;49.286;10.788;2022-08-19T00:20:23;16.87;;;14.87;;
3337;SDS011;1682;49.286;10.788;2022-08-19T00:23:11;18.67;;;14.07;;
3337;SDS011;1682;49.286;10.788;2022-08-19T00:25:58;16.37;;;14.77;;
3337;SDS011;1682;49.286;10.788;2022-08-19T00:28:46;18.00;;;15.20;;
3337;SDS011;1682;49.286;10.788;2022-08-19T00:31:35;19.00;;;15.13;;
3337;SDS011;1682;49.286;10.788;2022-08-19T00:34:22;21.73;;;16.07;;
3337;SDS011;1682;49.286;10.788;2022-08-19T00:37:13;17.93;;;15.47;;
3337;SDS011;1682;49.286;10.788;2022-08-19T00:40:01;21.70;;;16.90;;
3337;SDS011;1682;49.286;10.788;2022-08-19T00:42:49;19.47;;;15.77;;
3337;SDS011;1682;49.286;10.788;2022-08-19T00:45:39;17.40;;;15.60;;
3337;SDS011;1682;49.286;10.788;2022-08-19T00:48:30;17.83;;;16.13;;
3337;SDS011;1682;49.286;10.788;2022-08-19T00:51:18;17.77;;;15.23;;
3337;SDS011;1682;49.286;10.788;2022-08-19T00:54:07;17.67;;;15.87;;
3337;SDS011;1682;49.286;10.788;2022-08-19T00:56:54;21.50;;;16.70;;
3337;SDS011;1682;49.286;10.788;2022-08-19T00:59:42;17.93;;;14.80;;
3337;SDS011;1682;49.286;10.788;2022-08-19T01:02:32;18.20;;;15.53;;
3337;SDS011;1682;49.286;10.788;2022-08-19T01:05:22;19.10;;;15.10;;
3337;SDS011;1682;49.286;10.788;2022-08-19T01:08:10;20.20;;;15.20;;
3337;SDS011;1682;49.286;10.788;2022-08-19T01:10:58;20.03;;;17.73;;
3337;SDS011;1682;49.286;10.788;2022-08-19T01:13:46;17.90;;;15.43;;
3337;SDS011;1682;49.286;10.788;2022-08-19T01:16:34;18.20;;;15.43;;
3337;SDS011;1682;49.286;10.788;2022-08-19T01:19:24;17.57;;;15.40;;
3337;SDS011;1682;49.286;10.788;2022-08-19T01:22:16;18.40;;;15.23;;
3337;SDS011;1682;49.286;10.788;2022-08-19T01:25:08;23.30;;;17.37;;
3337;SDS011;1682;49.286;10.788;2022-08-19T01:27:55;22.87;;;17.20;;
3337;SDS011;1682;49.286;10.788;2022-08-19T01:30:44;19.27;;;16.63;;
3337;SDS011;1682;49.286;10.788;2022-08-19T01:33:31;22.20;;;17.50;;
3337;SDS011;1682;49.286;10.788;2022-08-19T01:36:22;19.67;;;15.50;;
3337;SDS011;1682;49.286;10.788;2022-08-19T01:39:12;19.97;;;14.80;;
3337;SDS011;1682;49.286;10.788;2022-08-19T01:42:01;18.27;;;14.67;;
3337;SDS011;1682;49.286;10.788;2022-08-19T01:44:49;20.03;;;15.03;;
3337;SDS011;1682;49.286;10.788;2022-08-19T01:47:37;17.80;;;15.20;;
3337;SDS011;1682;49.286;10.788;2022-08-19T01:50:24;20.30;;;15.87;;
3337;SDS011;1682;49.286;10.788;2022-08-19T01:53:13;19.67;;;16.37;;
3337;SDS011;1682;49.286;10.788;2022-08-19T01:56:02;23.27;;;15.70;;
3337;SDS011;1682;49.286;10.788;2022-08-19T01:58:52;18.60;;;16.40;;
3337;SDS011;1682;49.286;10.788;2022-08-19T02:01:41;20.57;;;16.40;;
3337;SDS011;1682;49.286;10.788;2022-08-19T02:04:28;19.97;;;16.30;;
3337;SDS011;1682;49.286;10.788;2022-08-19T02:07:18;18.97;;;17.00;;
3337;SDS011;1682;49.286;10.788;2022-08-19T02:10:08;21.87;;;15.60;;
3337;SDS011;1682;49.286;10.788;2022-08-19T02:12:55;18.70;;;16.33;;
3337;SDS011;1682;49.286;10.788;2022-08-19T02:15:44;18.37;;;15.03;;
3337;SDS011;1682;49.286;10.788;2022-08-19T02:18:32;17.87;;;15.17;;
3337;SDS011;1682;49.286;10.788;2022-08-19T02:21:20;19.57;;;15.50;;
3337;SDS011;1682;49.286;10.788;2022-08-19T02:24:08;21.57;;;15.63;;
3337;SDS011;1682;49.286;10.788;2022-08-19T02:26:57;23.93;;;18.83;;
3337;SDS011;1682;49.286;10.788;2022-08-19T02:29:45;18.00;;;15.40;;
3337;SDS011;1682;49.286;10.788;2022-08-19T02:32:34;22.20;;;16.13;;
3337;SDS011;1682;49.286;10.788;2022-08-19T02:35:22;21.57;;;15.73;;
3337;SDS011;1682;49.286;10.788;2022-08-19T02:38:09;21.63;;;15.53;;
3337;SDS011;1682;49.286;10.788;2022-08-19T02:41:12;18.60;;;15.63;;
3337;SDS011;1682;49.286;10.788;2022-08-19T02:44:01;19.37;;;16.30;;
3337;SDS011;1682;49.286;10.788;2022-08-19T02:46:49;18.43;;;15.37;;
3337;SDS011;1682;49.286;10.788;2022-08-19T02:49:38;19.47;;;14.23;;
3337;SDS011;1682;49.286;10.788;2022-08-19T02:52:25;20.03;;;15.43;;
3337;SDS011;1682;49.286;10.788;2022-08-19T02:55:13;22.30;;;16.77;;
3337;SDS011;1682;49.286;10.788;2022-08-19T02:58:01;21.27;;;14.63;;
3337;SDS011;1682;49.286;10.788;2022-08-19T03:00:49;17.80;;;14.77;;
3337;SDS011;1682;49.286;10.788;2022-08-19T03:03:36;21.13;;;15.43;;
3337;SDS011;1682;49.286;10.788;2022-08-19T03:06:25;17.97;;;14.07;;
3337;SDS011;1682;49.286;10.788;2022-08-19T03:09:13;18.13;;;15.80;;
3337;SDS011;1682;49.286;10.788;2022-08-19T03:12:02;18.10;;;14.20;;
3337;SDS011;1682;49.286;10.788;2022-08-19T03:14:49;17.50;;;15.43;;
3337;SDS011;1682;49.286;10.788;2022-08-19T03:17:38;20.07;;;15.83;;
3337;SDS011;1682;49.286;10.788;2022-08-19T03:20:25;19.40;;;15.00;;
3337;SDS011;1682;49.286;10.788;2022-08-19T03:23:14;21.17;;;15.37;;
3337;SDS011;1682;49.286;10.788;2022-08-19T03:26:03;23.97;;;16.50;;
3337;SDS011;1682;49.286;10.788;2022-08-19T03:28:51;22.60;;;16.00;;
3337;SDS011;1682;49.286;10.788;2022-08-19T03:31:39;19.97;;;14.23;;
3337;SDS011;1682;49.286;10.788;2022-08-19T03:34:27;22.20;;;16.13;;
3337;SDS011;1682;49.286;10.788;2022-08-19T03:37:15;21.40;;;15.83;;
3337;SDS011;1682;49.286;10.788;2022-08-19T03:40:04;18.97;;;15.27;;
3337;SDS011;1682;49.286;10.788;2022-08-19T03:42:52;23.90;;;16.90;;
3337;SDS011;1682;49.286;10.788;2022-08-19T03:45:40;23.77;;;16.57;;
3337;SDS011;1682;49.286;10.788;2022-08-19T03:48:27;20.87;;;17.20;;
3337;SDS011;1682;49.286;10.788;2022-08-19T03:51:16;21.83;;;17.07;;
3337;SDS011;1682;49.286;10.788;2022-08-19T03:54:05;18.90;;;14.90;;
3337;SDS011;1682;49.286;10.788;2022-08-19T03:56:54;23.70;;;14.83;;
3337;SDS011;1682;49.286;10.788;2022-08-19T03:59:42;23.07;;;18.57;;
3337;SDS011;1682;49.286;10.788;2022-08-19T04:02:30;21.80;;;16.33;;
3337;SDS011;1682;49.286;10.788;2022-08-19T04:05:17;20.47;;;16.23;;
3337;SDS011;1682;49.286;10.788;2022-08-19T04:08:05;23.50;;;16.43;;
3337;SDS011;1682;49.286;10.788;2022-08-19T04:10:53;23.03;;;15.00;;
3337;SDS011;1682;49.286;10.788;2022-08-19T04:13:42;23.90;;;16.97;;
3337;SDS011;1682;49.286;10.788;2022-08-19T04:16:29;22.67;;;16.23;;
3337;SDS011;1682;49.286;10.788;2022-08-19T04:19:17;22.00;;;15.80;;
3337;SDS011;1682;49.286;10.788;2022-08-19T04:22:05;26.80;;;15.80;;
3337;SDS011;1682;49.286;10.788;2022-08-19T04:24:53;24.53;;;16.20;;
3337;SDS011;1682;49.286;10.788;2022-08-19T04:27:40;23.30;;;16.20;;
3337;SDS011;1682;49.286;10.788;2022-08-19T04:30:38;21.27;;;16.40;;
3337;SDS011;1682;49.286;10.788;2022-08-19T04:33:25;23.00;;;16.50;;
3337;SDS011;1682;49.286;10.788;2022-08-19T04:36:17;19.03;;;15.20;;
3337;SDS011;1682;49.286;10.788;2022-08-19T04:39:06;22.77;;;14.60;;
3337;SDS011;1682;49.286;10.788;2022-08-19T04:41:54;23.07;;;16.93;;
3337;SDS011;1682;49.286;10.788;2022-08-19T04:44:59;25.30;;;18.60;;
3337;SDS011;1682;49.286;10.788;2022-08-19T04:47:53;23.33;;;16.63;;
3337;SDS011;1682;49.286;10.788;2022-08-19T04:50:42;23.37;;;16.70;;
3337;SDS011;1682;49.286;10.788;2022-08-19T04:53:31;30.43;;;18.50;;
3337;SDS011;1682;49.286;10.788;2022-08-19T04:56:19;27.90;;;16.77;;
3337;SDS011;1682;49.286;10.788;2022-08-19T04:59:08;25.03;;;15.73;;
3337;SDS011;1682;49.286;10.788;2022-08-19T05:01:56;24.70;;;17.67;;
3337;SDS011;1682;49.286;10.788;2022-08-19T05:04:45;23.80;;;17.10;;
3337;SDS011;1682;49.286;10.788;2022-08-19T05:07:33;21.70;;;17.03;;
3337;SDS011;1682;49.286;10.788;2022-08-19T05:10:21;22.43;;;15.30;;
3337;SDS011;1682;49.286;10.788;2022-08-19T05:13:08;22.00;;;17.07;;
3337;SDS011;1682;49.286;10.788;2022-08-19T05:15:57;24.77;;;16.20;;
3337;SDS011;1682;49.286;10.788;2022-08-19T05:18:45;25.03;;;16.70;;
3337;SDS011;1682;49.286;10.788;2022-08-19T05:21:51;21.90;;;16.10;;
3337;SDS011;1682;49.286;10.788;2022-08-19T05:24:57;23.27;;;15.57;;
3337;SDS011;1682;49.286;10.788;2022-08-19T05:27:46;22.00;;;14.57;;
3337;SDS011;1682;49.286;10.788;2022-08-19T05:30:33;20.50;;;15.77;;
3337;SDS011;1682;49.286;10.788;2022-08-19T05:33:21;22.30;;;16.13;;
3337;SDS011;1682;49.286;10.788;2022-08-19T05:36:09;22.80;;;15.73;;
3337;SDS011;1682;49.286;10.788;2022-08-19T05:38:58;21.70;;;15.10;;
3337;SDS011;1682;49.286;10.788;2022-08-19T05:41:47;22.90;;;15.80;;
3337;SDS011;1682;49.286;10.788;2022-08-19T05:44:35;21.10;;;16.00;;
3337;SDS011;1682;49.286;10.788;2022-08-19T05:47:23;20.20;;;15.87;;
3337;SDS011;1682;49.286;10.788;2022-08-19T05:50:11;23.73;;;16.40;;
3337;SDS011;1682;49.286;10.788;2022-08-19T05:52:58;21.27;;;15.70;;
3337;SDS011;1682;49.286;10.788;2022-08-19T05:55:47;20.87;;;16.80;;
3337;SDS011;1682;49.286;10.788;2022-08-19T05:58:35;20.07;;;15.53;;
3337;SDS011;1682;49.286;10.788;2022-08-19T06:01:22;26.47;;;16.67;;
3337;SDS011;1682;49.286;10.788;2022-08-19T06:04:10;21.33;;;17.23;;
3337;SDS011;1682;49.286;10.788;2022-08-19T06:06:58;23.13;;;16.17;;
3337;SDS011;1682;49.286;10.788;2022-08-19T06:09:47;21.40;;;15.83;;
3337;SDS011;1682;49.286;10.788;2022-08-19T06:12:36;19.90;;;14.40;;
3337;SDS011;1682;49.286;10.788;2022-08-19T06:15:23;19.10;;;15.40;;
3337;SDS011;1682;49.286;10.788;2022-08-19T06:18:13;22.20;;;14.67;;
3337;SDS011;1682;49.286;10.788;2022-08-19T06:21:01;19.53;;;15.80;;
3337;SDS011;1682;49.286;10.788;2022-08-19T06:23:50;22.77;;;14.47;;
3337;SDS011;1682;49.286;10.788;2022-08-19T06:26:38;20.90;;;15.77;;
3337;SDS011;1682;49.286;10.788;2022-08-19T06:29:27;22.30;;;16.80;;
3337;SDS011;1682;49.286;10.788;2022-08-19T06:32:17;23.83;;;15.50;;
3337;SDS011;1682;49.286;10.788;2022-08-19T06:35:05;21.47;;;14.73;;
3337;SDS011;1682;49.286;10.788;2022-08-19T06:37:52;24.37;;;13.60;;
3337;SDS011;1682;49.286;10.788;2022-08-19T06:40:40;20.93;;;15.97;;
3337;SDS011;1682;49.286;10.788;2022-08-19T06:43:27;21.47;;;15.67;;
3337;SDS011;1682;49.286;10.788;2022-08-19T06:46:16;19.80;;;14.37;;
3337;SDS011;1682;49.286;10.788;2022-08-19T06:49:05;19.77;;;16.00;;
3337;SDS011;1682;49.286;10.788;2022-08-19T06:51:55;20.53;;;14.83;;
3337;SDS011;1682;49.286;10.788;2022-08-19T06:54:43;20.20;;;15.23;;
3337;SDS011;1682;49.286;10.788;2022-08-19T06:57:31;19.73;;;14.90;;
3337;SDS011;1682;49.286;10.788;2022-08-19T07:00:18;21.20;;;16.20;;
3337;SDS011;1682;49.286;10.788;2022-08-19T07:03:07;16.43;;;13.17;;
3337;SDS011;1682;49.286;10.788;2022-08-19T07:05:55;19.33;;;15.80;;
3337;SDS011;1682;49.286;10.788;2022-08-19T07:08:42;20.80;;;15.57;;
3337;SDS011;1682;49.286;10.788;2022-08-19T07:11:32;18.30;;;14.23;;
3337;SDS011;1682;49.286;10.788;2022-08-19T07:14:20;19.57;;;14.60;;
3337;SDS011;1682;49.286;10.788;2022-08-19T07:17:10;20.57;;;14.30;;
3337;SDS011;1682;49.286;10.788;2022-08-19T07:20:00;18.53;;;13.80;;
3337;SDS011;1682;49.286;10.788;2022-08-19T07:22:48;21.30;;;14.70;;
3337;SDS011;1682;49.286;10.788;2022-08-19T07:25:36;18.40;;;14.23;;
3337;SDS011;1682;49.286;10.788;2022-08-19T07:28:24;19.50;;;13.80;;
3337;SDS011;1682;49.286;10.788;2022-08-19T07:31:12;18.73;;;13.73;;
3337;SDS011;1682;49.286;10.788;2022-08-19T07:34:00;14.83;;;12.37;;
3337;SDS011;1682;49.286;10.788;2022-08-19T07:36:49;16.57;;;13.97;;
3337;SDS011;1682;49.286;10.788;2022-08-19T07:39:37;20.40;;;14.90;;
3337;SDS011;1682;49.286;10.788;2022-08-19T07:42:25;20.53;;;15.10;;
3337;SDS011;1682;49.286;10.788;2022-08-19T07:45:14;20.40;;;14.40;;
3337;SDS011;1682;49.286;10.788;2022-08-19T07:48:02;21.63;;;14.07;;
3337;SDS011;1682;49.286;10.788;2022-08-19T07:50:50;18.67;;;14.60;;
3337;SDS011;1682;49.286;10.788;2022-08-19T07:53:39;17.57;;;13.43;;
3337;SDS011;1682;49.286;10.788;2022-08-19T07:56:27;18.90;;;15.07;;
3337;SDS011;1682;49.286;10.788;2022-08-19T07:59:14;19.17;;;13.40;;
3337;SDS011;1682;49.286;10.788;2022-08-19T08:02:02;16.87;;;13.87;;
3337;SDS011;1682;49.286;10.788;2022-08-19T08:04:50;18.70;;;13.63;;
3337;SDS011;1682;49.286;10.788;2022-08-19T08:07:55;15.77;;;13.07;;
3337;SDS011;1682;49.286;10.788;2022-08-19T08:11:02;23.40;;;14.43;;
3337;SDS011;1682;49.286;10.788;2022-08-19T08:13:49;16.73;;;13.80;;
3337;SDS011;1682;49.286;10.788;2022-08-19T08:16:37;19.03;;;14.43;;
3337;SDS011;1682;49.286;10.788;2022-08-19T08:19:26;16.50;;;14.40;;
3337;SDS011;1682;49.286;10.788;2022-08-19T08:22:15;20.20;;;15.23;;
3337;SDS011;1682;49.286;10.788;2022-08-19T08:25:17;18.07;;;13.70;;
3337;SDS011;1682;49.286;10.788;2022-08-19T08:28:07;16.83;;;14.03;;
3337;SDS011;1682;49.286;10.788;2022-08-19T08:30:55;18.20;;;13.27;;
3337;SDS011;1682;49.286;10.788;2022-08-19T08:33:43;14.10;;;12.60;;
3337;SDS011;1682;49.286;10.788;2022-08-19T08:36:31;22.30;;;14.67;;
3337;SDS011;1682;49.286;10.788;2022-08-19T08:39:19;19.37;;;13.90;;
3337;SDS011;1682;49.286;10.788;2022-08-19T08:42:09;17.40;;;13.53;;
3337;SDS011;1682;49.286;10.788;2022-08-19T08:45:03;18.37;;;15.40;;
3337;SDS011;1682;49.286;10.788;2022-08-19T08:47:56;17.30;;;12.50;;
3337;SDS011;1682;49.286;10.788;2022-08-19T08:50:45;22.70;;;14.50;;
3337;SDS011;1682;49.286;10.788;2022-08-19T08:53:35;24.93;;;13.90;;
3337;SDS011;1682;49.286;10.788;2022-08-19T08:56:23;16.93;;;15.13;;
3337;SDS011;1682;49.286;10.788;2022-08-19T08:59:12;14.47;;;13.07;;
3337;SDS011;1682;49.286;10.788;2022-08-19T09:02:04;16.53;;;12.73;;
3337;SDS011;1682;49.286;10.788;2022-08-19T09:04:53;17.37;;;13.53;;
3337;SDS011;1682;49.286;10.788;2022-08-19T09:07:42;16.53;;;13.77;;
3337;SDS011;1682;49.286;10.788;2022-08-19T09:10:34;14.03;;;12.57;;
3337;SDS011;1682;49.286;10.788;2022-08-19T09:13:24;17.20;;;13.20;;
3337;SDS011;1682;49.286;10.788;2022-08-19T09:16:17;14.70;;;12.93;;
3337;SDS011;1682;49.286;10.788;2022-08-19T09:19:08;16.40;;;12.37;;
3337;SDS011;1682;49.286;10.788;2022-08-19T09:21:56;17.33;;;13.07;;
3337;SDS011;1682;49.286;10.788;2022-08-19T09:24:46;14.23;;;12.00;;
3337;SDS011;1682;49.286;10.788;2022-08-19T09:27:33;16.40;;;14.20;;
3337;SDS011;1682;49.286;10.788;2022-08-19T09:30:23;15.50;;;13.70;;
3337;SDS011;1682;49.286;10.788;2022-08-19T09:33:11;17.10;;;13.07;;
3337;SDS011;1682;49.286;10.788;2022-08-19T09:36:04;13.17;;;11.53;;
3337;SDS011;1682;49.286;10.788;2022-08-19T09:38:52;16.47;;;13.10;;
3337;SDS011;1682;49.286;10.788;2022-08-19T09:41:40;15.70;;;12.80;;
3337;SDS011;1682;49.286;10.788;2022-08-19T09:44:27;16.43;;;12.37;;
3337;SDS011;1682;49.286;10.788;2022-08-19T09:47:15;15.00;;;13.33;;
3337;SDS011;1682;49.286;10.788;2022-08-19T09:50:03;16.63;;;13.90;;
3337;SDS011;1682;49.286;10.788;2022-08-19T09:52:52;14.37;;;11.97;;
3337;SDS011;1682;49.286;10.788;2022-08-19T09:55:41;15.73;;;13.63;;
3337;SDS011;1682;49.286;10.788;2022-08-19T09:58:28;17.90;;;13.67;;
3337;SDS011;1682;49.286;10.788;2022-08-19T10:01:17;15.70;;;13.37;;
3337;SDS011;1682;49.286;10.788;2022-08-19T10:04:05;19.93;;;12.80;;
3337;SDS011;1682;49.286;10.788;2022-08-19T10:06:55;14.13;;;11.20;;
3337;SDS011;1682;49.286;10.788;2022-08-19T10:09:43;15.17;;;13.37;;
3337;SDS011;1682;49.286;10.788;2022-08-19T10:12:32;16.33;;;12.83;;
3337;SDS011;1682;49.286;10.788;2022-08-19T10:15:20;18.07;;;14.33;;
3337;SDS011;1682;49.286;10.788;2022-08-19T10:18:07;18.17;;;14.40;;
3337;SDS011;1682;49.286;10.788;2022-08-19T10:21:02;13.87;;;12.20;;
3337;SDS011;1682;49.286;10.788;2022-08-19T10:23:53;18.37;;;14.73;;
3337;SDS011;1682;49.286;10.788;2022-08-19T10:26:43;17.30;;;13.63;;
3337;SDS011;1682;49.286;10.788;2022-08-19T10:29:33;13.47;;;12.07;;
3337;SDS011;1682;49.286;10.788;2022-08-19T10:32:21;15.97;;;13.23;;
3337;SDS011;1682;49.286;10.788;2022-08-19T10:35:10;17.00;;;13.40;;
3337;SDS011;1682;49.286;10.788;2022-08-19T10:37:58;16.70;;;13.10;;
3337;SDS011;1682;49.286;10.788;2022-08-19T10:40:47;16.53;;;12.60;;
3337;SDS011;1682;49.286;10.788;2022-08-19T10:43:36;16.40;;;13.23;;
3337;SDS011;1682;49.286;10.788;2022-08-19T10:46:26;17.27;;;14.10;;
3337;SDS011;1682;49.286;10.788;2022-08-19T10:49:14;13.40;;;11.90;;
3337;SDS011;1682;49.286;10.788;2022-08-19T10:52:01;16.00;;;13.53;;
3337;SDS011;1682;49.286;10.788;2022-08-19T10:55:07;15.83;;;14.10;;
3337;SDS011;1682;49.286;10.788;2022-08-19T10:58:15;14.73;;;12.33;;
3337;SDS011;1682;49.286;10.788;2022-08-19T11:01:04;15.50;;;12.73;;
3337;SDS011;1682;49.286;10.788;2022-08-19T11:03:51;14.80;;;12.43;;
3337;SDS011;1682;49.286;10.788;2022-08-19T11:06:40;15.83;;;11.00;;
3337;SDS011;1682;49.286;10.788;2022-08-19T11:09:28;13.10;;;11.70;;
3337;SDS011;1682;49.286;10.788;2022-08-19T11:12:16;13.83;;;11.77;;
3337;SDS011;1682;49.286;10.788;2022-08-19T11:15:05;12.67;;;11.23;;
3337;SDS011;1682;49.286;10.788;2022-08-19T11:17:57;14.97;;;13.07;;
3337;SDS011;1682;49.286;10.788;2022-08-19T11:20:44;16.57;;;13.33;;
3337;SDS011;1682;49.286;10.788;2022-08-19T11:23:32;16.50;;;12.60;;
3337;SDS011;1682;49.286;10.788;2022-08-19T11:26:19;18.83;;;13.10;;
3337;SDS011;1682;49.286;10.788;2022-08-19T11:29:08;15.47;;;13.87;;
3337;SDS011;1682;49.286;10.788;2022-08-19T11:31:57;21.27;;;15.87;;
3337;SDS011;1682;49.286;10.788;2022-08-19T11:34:48;17.57;;;13.63;;
3337;SDS011;1682;49.286;10.788;2022-08-19T11:37:35;24.47;;;16.27;;
3337;SDS011;1682;49.286;10.788;2022-08-19T11:40:23;20.77;;;16.20;;
3337;SDS011;1682;49.286;10.788;2022-08-19T11:43:10;17.77;;;15.27;;
3337;SDS011;1682;49.286;10.788;2022-08-19T11:45:58;24.07;;;17.40;;
3337;SDS011;1682;49.286;10.788;2022-08-19T11:48:45;22.53;;;17.87;;
3337;SDS011;1682;49.286;10.788;2022-08-19T11:51:36;26.30;;;17.13;;
3337;SDS011;1682;49.286;10.788;2022-08-19T11:54:23;24.40;;;17.63;;
3337;SDS011;1682;49.286;10.788;2022-08-19T11:57:11;23.23;;;18.03;;
3337;SDS011;1682;49.286;10.788;2022-08-19T12:00:02;23.77;;;18.57;;
3337;SDS011;1682;49.286;10.788;2022-08-19T12:02:51;23.73;;;17.10;;
3337;SDS011;1682;49.286;10.788;2022-08-19T12:05:40;30.27;;;18.63;;
3337;SDS011;1682;49.286;10.788;2022-08-19T12:08:29;23.23;;;17.83;;
3337;SDS011;1682;49.286;10.788;2022-08-19T12:11:17;22.10;;;16.53;;
3337;SDS011;1682;49.286;10.788;2022-08-19T12:14:04;22.57;;;18.60;;
3337;SDS011;1682;49.286;10.788;2022-08-19T12:16:52;20.90;;;16.67;;
3337;SDS011;1682;49.286;10.788;2022-08-19T12:19:39;26.97;;;19.70;;
3337;SDS011;1682;49.286;10.788;2022-08-19T12:22:27;24.97;;;17.37;;
3337;SDS011;1682;49.286;10.788;2022-08-19T12:25:16;28.00;;;18.80;;
3337;SDS011;1682;49.286;10.788;2022-08-19T12:28:04;27.93;;;17.43;;
3337;SDS011;1682;49.286;10.788;2022-08-19T12:30:51;26.33;;;18.27;;
3337;SDS011;1682;49.286;10.788;2022-08-19T12:33:39;24.93;;;19.03;;
3337;SDS011;1682;49.286;10.788;2022-08-19T12:36:27;21.50;;;16.83;;
3337;SDS011;1682;49.286;10.788;2022-08-19T12:39:14;24.83;;;17.70;;
3337;SDS011;1682;49.286;10.788;2022-08-19T12:42:04;19.30;;;15.40;;
3337;SDS011;1682;49.286;10.788;2022-08-19T12:44:52;21.33;;;16.47;;
3337;SDS011;1682;49.286;10.788;2022-08-19T12:47:40;22.50;;;17.80;;
3337;SDS011;1682;49.286;10.788;2022-08-19T12:50:28;18.90;;;16.80;;
3337;SDS011;1682;49.286;10.788;2022-08-19T12:53:16;19.10;;;17.13;;
3337;SDS011;1682;49.286;10.788;2022-08-19T12:56:03;21.70;;;16.90;;
3337;SDS011;1682;49.286;10.788;2022-08-19T12:58:52;18.67;;;15.73;;
3337;SDS011;1682;49.286;10.788;2022-08-19T13:01:41;21.67;;;16.67;;
3337;SDS011;1682;49.286;10.788;2022-08-19T13:04:28;18.40;;;14.87;;
3337;SDS011;1682;49.286;10.788;2022-08-19T13:07:16;21.37;;;17.60;;
3337;SDS011;1682;49.286;10.788;2022-08-19T13:10:04;18.93;;;17.00;;
3337;SDS011;1682;49.286;10.788;2022-08-19T13:12:51;21.33;;;17.30;;
3337;SDS011;1682;49.286;10.788;2022-08-19T13:15:41;19.57;;;17.03;;
3337;SDS011;1682;49.286;10.788;2022-08-19T13:18:30;23.87;;;17.37;;
3337;SDS011;1682;49.286;10.788;2022-08-19T13:21:18;25.70;;;17.97;;
3337;SDS011;1682;49.286;10.788;2022-08-19T13:24:06;28.50;;;18.50;;
3337;SDS011;1682;49.286;10.788;2022-08-19T13:26:54;24.03;;;18.20;;
3337;SDS011;1682;49.286;10.788;2022-08-19T13:29:41;33.10;;;20.47;;
3337;SDS011;1682;49.286;10.788;2022-08-19T13:32:48;29.70;;;19.63;;
3337;SDS011;1682;49.286;10.788;2022-08-19T13:36:02;30.03;;;21.07;;
3337;SDS011;1682;49.286;10.788;2022-08-19T13:38:53;31.97;;;21.57;;
3337;SDS011;1682;49.286;10.788;2022-08-19T13:41:43;43.03;;;21.83;;
3337;SDS011;1682;49.286;10.788;2022-08-19T13:44:33;39.20;;;23.20;;
3337;SDS011;1682;49.286;10.788;2022-08-19T13:47:20;46.87;;;22.60;;
3337;SDS011;1682;49.286;10.788;2022-08-19T13:50:10;45.37;;;21.00;;
3337;SDS011;1682;49.286;10.788;2022-08-19T13:52:57;83.93;;;27.87;;
3337;SDS011;1682;49.286;10.788;2022-08-19T13:55:45;60.83;;;24.37;;
3337;SDS011;1682;49.286;10.788;2022-08-19T13:58:32;131.00;;;30.03;;
3337;SDS011;1682;49.286;10.788;2022-08-19T14:01:20;67.70;;;25.53;;
3337;SDS011;1682;49.286;10.788;2022-08-19T14:04:08;116.47;;;31.90;;
3337;SDS011;1682;49.286;10.788;2022-08-19T14:06:57;59.27;;;24.00;;
3337;SDS011;1682;49.286;10.788;2022-08-19T14:09:44;71.90;;;24.20;;
3337;SDS011;1682;49.286;10.788;2022-08-19T14:12:32;53.40;;;25.03;;
3337;SDS011;1682;49.286;10.788;2022-08-19T14:15:19;84.77;;;23.80;;
3337;SDS011;1682;49.286;10.788;2022-08-19T14:18:07;81.30;;;27.10;;
3337;SDS011;1682;49.286;10.788;2022-08-19T14:39:55;182.17;;;44.93;;
3337;SDS011;1682;49.286;10.788;2022-08-19T14:42:43;87.57;;;33.53;;
3337;SDS011;1682;49.286;10.788;2022-08-19T14:45:31;87.53;;;34.17;;
3337;SDS011;1682;49.286;10.788;2022-08-19T14:48:19;133.30;;;35.87;;
3337;SDS011;1682;49.286;10.788;2022-08-19T14:51:07;83.10;;;30.90;;
3337;SDS011;1682;49.286;10.788;2022-08-19T14:53:54;77.63;;;28.90;;
3337;SDS011;1682;49.286;10.788;2022-08-19T14:56:43;68.23;;;28.47;;
3337;SDS011;1682;49.286;10.788;2022-08-19T14:59:31;82.80;;;28.73;;
3337;SDS011;1682;49.286;10.788;2022-08-19T15:02:19;47.90;;;22.87;;
3337;SDS011;1682;49.286;10.788;2022-08-19T15:05:07;57.20;;;24.47;;
3337;SDS011;1682;49.286;10.788;2022-08-19T15:07:54;43.40;;;24.53;;
3337;SDS011;1682;49.286;10.788;2022-08-19T15:10:42;90.77;;;25.50;;
3337;SDS011;1682;49.286;10.788;2022-08-19T15:13:32;40.50;;;20.40;;
3337;SDS011;1682;49.286;10.788;2022-08-19T15:16:20;48.83;;;21.43;;
3337;SDS011;1682;49.286;10.788;2022-08-19T15:19:08;39.93;;;21.30;;
3337;SDS011;1682;49.286;10.788;2022-08-19T15:21:57;39.57;;;19.23;;
3337;SDS011;1682;49.286;10.788;2022-08-19T15:27:54;59.40;;;20.03;;
3337;SDS011;1682;49.286;10.788;2022-08-19T15:30:43;36.67;;;20.20;;
3337;SDS011;1682;49.286;10.788;2022-08-19T15:33:31;32.27;;;17.77;;
3337;SDS011;1682;49.286;10.788;2022-08-19T15:36:20;27.97;;;16.90;;
3337;SDS011;1682;49.286;10.788;2022-08-19T15:39:08;32.00;;;18.30;;
3337;SDS011;1682;49.286;10.788;2022-08-19T15:41:55;53.57;;;17.07;;
3337;SDS011;1682;49.286;10.788;2022-08-19T15:44:45;53.27;;;17.83;;
3337;SDS011;1682;49.286;10.788;2022-08-19T15:47:35;33.70;;;17.87;;
3337;SDS011;1682;49.286;10.788;2022-08-19T15:50:22;30.30;;;16.57;;
3337;SDS011;1682;49.286;10.788;2022-08-19T15:53:10;34.30;;;17.10;;
3337;SDS011;1682;49.286;10.788;2022-08-19T15:55:58;59.17;;;18.67;;
3337;SDS011;1682;49.286;10.788;2022-08-19T15:58:45;34.20;;;17.70;;
3337;SDS011;1682;49.286;10.788;2022-08-19T16:01:50;39.93;;;17.90;;
3337;SDS011;1682;49.286;10.788;2022-08-19T16:04:56;68.83;;;20.37;;
3337;SDS011;1682;49.286;10.788;2022-08-19T16:08:02;31.93;;;16.50;;
3337;SDS011;1682;49.286;10.788;2022-08-19T16:10:49;26.63;;;16.00;;
3337;SDS011;1682;49.286;10.788;2022-08-19T16:13:37;41.10;;;17.77;;
3337;SDS011;1682;49.286;10.788;2022-08-19T16:16:25;54.20;;;19.63;;
3337;SDS011;1682;49.286;10.788;2022-08-19T16:19:14;30.50;;;17.77;;
3337;SDS011;1682;49.286;10.788;2022-08-19T16:22:03;29.33;;;17.00;;
3337;SDS011;1682;49.286;10.788;2022-08-19T16:24:51;38.07;;;17.03;;
3337;SDS011;1682;49.286;10.788;2022-08-19T16:27:39;45.87;;;19.83;;
3337;SDS011;1682;49.286;10.788;2022-08-19T16:30:26;64.63;;;20.73;;
3337;SDS011;1682;49.286;10.788;2022-08-19T16:33:14;66.10;;;21.70;;
3337;SDS011;1682;49.286;10.788;2022-08-19T16:36:01;32.93;;;16.93;;
3337;SDS011;1682;49.286;10.788;2022-08-19T16:38:52;27.20;;;15.13;;
3337;SDS011;1682;49.286;10.788;2022-08-19T16:41:40;47.40;;;18.73;;
3337;SDS011;1682;49.286;10.788;2022-08-19T16:44:28;34.53;;;16.60;;
3337;SDS011;1682;49.286;10.788;2022-08-19T16:47:15;41.87;;;22.73;;
3337;SDS011;1682;49.286;10.788;2022-08-19T16:50:03;31.93;;;15.50;;
3337;SDS011;1682;49.286;10.788;2022-08-19T16:52:52;72.07;;;19.80;;
3337;SDS011;1682;49.286;10.788;2022-08-19T16:55:43;29.33;;;14.70;;
3337;SDS011;1682;49.286;10.788;2022-08-19T16:58:32;51.97;;;17.80;;
3337;SDS011;1682;49.286;10.788;2022-08-19T17:01:19;44.70;;;17.13;;
3337;SDS011;1682;49.286;10.788;2022-08-19T17:04:07;65.83;;;19.97;;